Time;durP1;ratioP1;P1;durP2;ratioP2;P2;SDS_P1;SDS_P2;PMS_P1;PMS_P2;Temp;Humidity;BMP_temperature;BMP_pressure;BME280_temperature;BME280_humidity;BME280_pressure;Samples;Min_cycle;Max_cycle;Signal;HPM_P1;HPM_P2
2024/03/23 00:00:19;;;;;;;4.70;3.73;;;;;;;11.49;81.92;154310.06;5048990;28;20875;-92
2024/03/23 00:02:49;;;;;;;4.50;3.87;;;;;;;11.51;83.17;154315.25;5068434;28;20454;-93
2024/03/23 00:05:19;;;;;;;5.67;4.93;;;;;;;11.43;83.44;154294.50;5048264;28;20454;-93
2024/03/23 00:07:50;;;;;;;4.73;4.23;;;;;;;11.39;83.43;154284.13;5076022;28;20435;-92
2024/03/23 00:10:21;;;;;;;5.00;4.33;;;;;;;11.39;83.68;154285.41;5057652;28;21125;-92
2024/03/23 00:12:51;;;;;;;6.50;4.40;;;;;;;11.38;83.44;154282.84;5043521;28;20527;-93
2024/03/23 00:15:20;;;;;;;5.47;4.33;;;;;;;11.34;83.58;154271.16;5061283;28;20470;-92
2024/03/23 00:17:50;;;;;;;4.23;3.83;;;;;;;11.30;83.77;154260.81;5061823;28;20508;-92
2024/03/23 00:20:19;;;;;;;4.43;4.03;;;;;;;11.25;83.81;154247.88;5046382;28;20467;-92
2024/03/23 00:22:50;;;;;;;4.40;3.70;;;;;;;11.16;82.64;154225.84;5058955;28;20422;-92
2024/03/23 00:25:19;;;;;;;4.80;3.70;;;;;;;11.13;83.59;154216.75;5044058;28;20524;-92
2024/03/23 00:27:49;;;;;;;4.30;3.90;;;;;;;11.14;83.96;154219.38;5056453;28;20794;-92
2024/03/23 00:30:18;;;;;;;4.30;3.60;;;;;;;11.14;84.54;154220.66;5059217;28;20472;-92
2024/03/23 00:32:48;;;;;;;7.93;4.87;;;;;;;11.12;84.42;154214.19;5061106;28;21316;-92
2024/03/23 00:35:18;;;;;;;4.70;4.00;;;;;;;11.08;83.98;154203.81;5064562;28;21029;-92
2024/03/23 00:37:48;;;;;;;4.63;4.13;;;;;;;11.08;85.37;154203.81;5056934;28;20466;-92
2024/03/23 00:40:17;;;;;;;5.23;4.07;;;;;;;11.04;84.50;154193.47;5062727;28;20466;-92
2024/03/23 00:42:47;;;;;;;6.77;4.30;;;;;;;11.00;83.91;154185.69;5051497;28;20990;-92
2024/03/23 00:45:17;;;;;;;4.30;3.50;;;;;;;11.04;84.38;154193.47;5033730;28;20466;-92
2024/03/23 00:47:47;;;;;;;4.97;3.80;;;;;;;11.06;85.13;154198.63;5059312;28;20438;-93
2024/03/23 00:50:16;;;;;;;4.00;3.43;;;;;;;11.04;84.88;154193.47;5058552;28;20726;-91
2024/03/23 00:52:46;;;;;;;4.17;3.77;;;;;;;11.06;84.87;154198.63;5051280;28;23717;-92
2024/03/23 00:55:14;;;;;;;5.97;3.80;;;;;;;11.05;85.07;154196.03;5051769;28;20957;-92
2024/03/23 00:57:40;;;;;;;4.60;3.90;;;;;;;11.05;84.50;154196.03;5067955;28;20445;-92
2024/03/23 01:00:07;;;;;;;3.90;3.30;;;;;;;11.07;85.85;154202.50;5061192;28;20476;-92
2024/03/23 01:02:36;;;;;;;4.50;3.50;;;;;;;11.06;86.18;154198.63;5049395;28;20442;-92
2024/03/23 01:05:01;;;;;;;5.77;4.30;;;;;;;11.04;86.01;154194.72;5038874;28;20484;-93
2024/03/23 01:07:28;;;;;;;3.97;3.33;;;;;;;11.07;86.61;154202.50;5062786;28;20481;-92
2024/03/23 01:09:53;;;;;;;3.70;3.30;;;;;;;11.07;87.22;154201.25;5055560;28;20210;-92
2024/03/23 01:12:21;;;;;;;4.03;3.63;;;;;;;11.04;86.89;154194.72;5058329;28;20454;-92
2024/03/23 01:14:47;;;;;;;4.57;3.67;;;;;;;11.05;86.59;154196.03;5063004;28;20283;-92
2024/03/23 01:17:13;;;;;;;4.50;3.53;;;;;;;11.06;86.86;154198.63;5045422;28;20458;-92
2024/03/23 01:19:41;;;;;;;3.93;3.27;;;;;;;11.06;86.25;154199.94;5049787;28;20367;-92
2024/03/23 01:22:07;;;;;;;5.80;3.87;;;;;;;11.11;87.01;154212.88;5042116;28;20441;-91
2024/03/23 01:24:33;;;;;;;3.47;3.17;;;;;;;11.12;87.59;154215.44;5061583;28;20501;-92
2024/03/23 01:26:59;;;;;;;3.93;3.30;;;;;;;11.12;87.98;154215.44;5062230;28;20439;-92
2024/03/23 01:29:26;;;;;;;4.43;3.10;;;;;;;11.11;86.71;154212.88;5061018;28;20722;-92
2024/03/23 01:31:53;;;;;;;3.70;3.40;;;;;;;11.17;86.38;154227.16;5047301;28;20463;-92
2024/03/23 01:34:20;;;;;;;4.30;3.37;;;;;;;11.15;86.29;154223.22;5050772;28;20478;-92
2024/03/23 01:36:47;;;;;;;4.77;4.00;;;;;;;11.16;87.70;154224.53;5063757;28;20454;-92
2024/03/23 01:39:14;;;;;;;4.77;3.30;;;;;;;11.14;86.88;154219.38;5052164;28;20561;-92
2024/03/23 01:41:42;;;;;;;3.07;2.50;;;;;;;11.16;86.67;154224.53;5049380;28;20513;-92
2024/03/23 01:44:08;;;;;;;3.37;3.07;;;;;;;11.17;86.67;154228.44;5058766;28;20531;-91
2024/03/23 01:46:36;;;;;;;4.53;3.20;;;;;;;11.17;86.84;154228.44;5063723;28;20526;-90
2024/03/23 01:49:03;;;;;;;3.73;3.33;;;;;;;11.14;86.64;154220.66;5063858;28;20296;-91
2024/03/23 01:51:30;;;;;;;4.23;2.80;;;;;;;11.16;86.32;154225.84;5049957;28;21025;-91
2024/03/23 01:53:56;;;;;;;4.60;3.43;;;;;;;11.16;86.27;154224.53;5052917;28;20213;-92
2024/03/23 01:56:23;;;;;;;4.00;3.30;;;;;;;11.19;86.45;154232.31;5058631;28;20421;-92
2024/03/23 01:58:48;;;;;;;4.00;3.40;;;;;;;11.18;86.74;154229.72;5063544;28;20833;-91
2024/03/23 02:01:15;;;;;;;3.83;3.37;;;;;;;11.17;87.14;154227.16;5060034;28;20455;-91
2024/03/23 02:03:42;;;;;;;3.30;2.90;;;;;;;11.17;87.12;154227.16;5035549;28;20631;-91
2024/03/23 02:06:09;;;;;;;4.20;3.13;;;;;;;11.18;86.46;154231.00;5055900;28;20499;-89
2024/03/23 02:08:34;;;;;;;3.47;3.17;;;;;;;11.19;86.99;154233.63;5050597;28;24754;-91
2024/03/23 02:11:01;;;;;;;3.00;2.73;;;;;;;11.19;87.08;154233.63;5065506;28;20448;-91
2024/03/23 02:13:26;;;;;;;3.43;2.93;;;;;;;11.25;86.23;154247.88;5038906;28;20247;-91
2024/03/23 02:15:53;;;;;;;4.30;3.10;;;;;;;11.24;86.42;154246.56;5048215;28;20443;-91
2024/03/23 02:18:18;;;;;;;4.47;3.47;;;;;;;11.25;86.64;154249.13;5044067;28;20205;-91
2024/03/23 02:20:46;;;;;;;3.77;3.10;;;;;;;11.22;86.83;154241.41;5062051;28;20452;-91
2024/03/23 02:23:17;;;;;;;4.80;3.03;;;;;;;11.24;86.54;154245.25;5065742;28;20702;-91
2024/03/23 02:25:44;;;;;;;4.70;3.30;;;;;;;11.25;86.16;154247.88;5047008;28;20486;-91
2024/03/23 02:28:10;;;;;;;3.37;3.07;;;;;;;11.27;85.90;154254.34;5058620;28;20458;-91
2024/03/23 02:30:37;;;;;;;3.97;3.20;;;;;;;11.26;86.42;154250.44;5060957;28;20508;-91
2024/03/23 02:33:03;;;;;;;3.57;3.27;;;;;;;11.26;87.02;154250.44;5060899;28;20472;-91
2024/03/23 02:35:30;;;;;;;5.30;3.70;;;;;;;11.23;87.75;154242.66;5062673;28;20461;-91
2024/03/23 02:37:56;;;;;;;3.63;3.00;;;;;;;11.20;88.46;154236.19;5055475;28;20987;-91
2024/03/23 02:40:25;;;;;;;4.40;3.17;;;;;;;11.19;87.98;154232.31;5054316;28;20564;-93
2024/03/23 02:42:51;;;;;;;3.50;3.20;;;;;;;11.14;88.32;154219.38;5064581;28;20465;-92
2024/03/23 02:45:17;;;;;;;4.10;3.70;;;;;;;11.11;88.81;154211.59;5039618;28;20442;-92
2024/03/23 02:47:43;;;;;;;3.60;3.00;;;;;;;11.07;88.90;154201.25;5066240;28;20209;-92
2024/03/23 02:50:10;;;;;;;4.40;3.13;;;;;;;11.09;89.31;154206.41;5051101;28;20454;-92
2024/03/23 02:52:36;;;;;;;4.10;3.20;;;;;;;11.04;89.83;154193.47;5059472;28;20209;-92
2024/03/23 02:55:03;;;;;;;3.20;2.90;;;;;;;11.03;89.20;154192.16;5054096;28;20971;-93
2024/03/23 02:57:29;;;;;;;5.17;3.10;;;;;;;11.07;88.94;154201.25;5055841;28;20454;-93
2024/03/23 02:59:56;;;;;;;6.70;2.87;;;;;;;11.07;88.41;154202.50;5050103;28;20474;-92
2024/03/23 03:02:22;;;;;;;5.00;3.37;;;;;;;11.08;88.98;154203.81;5063541;28;20455;-92
2024/03/23 03:04:48;;;;;;;8.50;4.20;;;;;;;11.09;89.25;154206.41;5057416;28;20481;-92
2024/03/23 03:07:14;;;;;;;3.43;3.13;;;;;;;11.05;89.28;154196.03;5056321;28;20937;-92
2024/03/23 03:09:41;;;;;;;3.97;3.10;;;;;;;11.04;89.47;154193.47;5065774;28;20454;-92
2024/03/23 03:12:08;;;;;;;3.13;2.83;;;;;;;11.01;90.25;154188.25;5063288;28;20205;-92
2024/03/23 03:14:34;;;;;;;3.53;3.00;;;;;;;11.01;90.72;154187.00;5064039;28;20558;-92
2024/03/23 03:17:01;;;;;;;4.33;2.97;;;;;;;11.00;91.21;154184.38;5057067;28;20461;-91
2024/03/23 03:19:27;;;;;;;3.37;2.93;;;;;;;10.97;91.47;154177.91;5057536;28;20476;-92
2024/03/23 03:21:53;;;;;;;4.17;3.63;;;;;;;10.98;91.11;154180.53;5060593;28;20449;-92
2024/03/23 03:24:19;;;;;;;3.57;3.27;;;;;;;10.98;91.19;154180.53;5057219;28;20205;-93
2024/03/23 03:26:45;;;;;;;4.57;3.30;;;;;;;10.99;91.12;154181.78;5068520;28;20535;-91
2024/03/23 03:29:11;;;;;;;4.63;3.40;;;;;;;11.00;91.39;154184.38;5070059;28;20193;-92
2024/03/23 03:31:39;;;;;;;3.27;2.97;;;;;;;10.99;90.96;154181.78;5044680;28;20447;-91
2024/03/23 03:34:05;;;;;;;5.60;2.80;;;;;;;11.02;90.37;154190.84;5059548;28;20210;-92
2024/03/23 03:36:31;;;;;;;3.67;3.20;;;;;;;11.02;89.73;154190.84;5042602;28;20846;-92
2024/03/23 03:38:57;;;;;;;3.33;2.97;;;;;;;11.02;89.85;154189.56;5050375;28;20225;-92
2024/03/23 03:41:23;;;;;;;3.53;2.77;;;;;;;11.00;90.12;154185.69;5059233;28;20438;-91
2024/03/23 03:43:49;;;;;;;4.00;3.00;;;;;;;11.01;90.21;154188.25;5041103;28;20236;-92
2024/03/23 03:46:15;;;;;;;3.70;3.07;;;;;;;11.00;89.37;154185.69;5055043;28;20439;-93
2024/03/23 03:48:44;;;;;;;3.97;3.27;;;;;;;11.00;89.42;154185.69;5065128;28;20221;-92
2024/03/23 03:51:11;;;;;;;4.07;3.40;;;;;;;11.02;89.52;154189.56;5061358;28;20451;-92
2024/03/23 03:53:36;;;;;;;3.90;3.50;;;;;;;11.01;90.22;154188.25;5033709;28;20455;-92
2024/03/23 03:56:03;;;;;;;3.70;3.40;;;;;;;10.99;90.44;154181.78;5038141;28;20484;-92
2024/03/23 03:58:29;;;;;;;5.97;3.70;;;;;;;10.97;90.78;154177.91;5068281;28;20300;-92
2024/03/23 04:00:55;;;;;;;4.40;3.57;;;;;;;10.93;90.73;154167.53;5048033;28;20569;-91
2024/03/23 04:03:21;;;;;;;3.73;3.27;;;;;;;10.93;90.41;154167.53;5030385;28;20563;-92
2024/03/23 04:05:52;;;;;;;4.43;3.03;;;;;;;10.89;89.86;154157.19;5055902;28;20453;-92
2024/03/23 04:08:18;;;;;;;4.07;3.70;;;;;;;10.89;90.53;154157.19;5060949;28;20205;-91
2024/03/23 04:10:44;;;;;;;3.73;3.23;;;;;;;10.86;90.94;154149.41;5062821;28;20950;-92
2024/03/23 04:13:10;;;;;;;3.50;3.20;;;;;;;10.83;91.06;154141.63;5049275;28;20243;-92
2024/03/23 04:15:36;;;;;;;3.50;2.83;;;;;;;10.81;91.96;154136.47;5060711;28;20461;-92
2024/03/23 04:18:02;;;;;;;3.87;3.50;;;;;;;10.73;91.26;154115.75;5058101;28;20209;-92
2024/03/23 04:20:28;;;;;;;6.07;3.60;;;;;;;10.72;90.37;154113.13;5068162;28;20481;-92
2024/03/23 04:22:55;;;;;;;3.97;3.10;;;;;;;10.71;90.27;154110.56;5065622;28;20216;-92
2024/03/23 04:25:22;;;;;;;4.30;3.30;;;;;;;10.68;90.94;154102.78;5046941;28;20486;-91
2024/03/23 04:27:47;;;;;;;3.53;3.23;;;;;;;10.66;91.97;154096.31;5061026;28;20437;-91
2024/03/23 04:30:15;;;;;;;3.23;2.90;;;;;;;10.64;92.49;154092.47;5048926;28;20861;-92
2024/03/23 04:32:41;;;;;;;3.87;3.47;;;;;;;10.62;93.32;154087.25;5028465;28;20233;-92
2024/03/23 04:35:09;;;;;;;4.37;3.17;;;;;;;10.62;93.96;154087.25;5060954;28;20461;-91
2024/03/23 04:37:36;;;;;;;4.20;3.60;;;;;;;10.61;94.41;154084.69;5065504;28;20437;-92
2024/03/23 04:40:05;;;;;;;4.77;3.67;;;;;;;10.60;94.61;154080.78;5053184;28;20477;-93
2024/03/23 04:42:32;;;;;;;5.27;3.50;;;;;;;10.57;95.19;154074.31;5050100;28;20918;-92
2024/03/23 04:44:58;;;;;;;3.90;2.90;;;;;;;10.53;95.74;154063.97;5064410;28;20445;-92
2024/03/23 04:47:25;;;;;;;6.80;3.27;;;;;;;10.58;95.46;154076.91;5067692;28;20430;-92
2024/03/23 04:49:53;;;;;;;4.00;3.60;;;;;;;10.62;94.78;154087.25;5066853;28;20469;-93
2024/03/23 04:52:19;;;;;;;5.67;4.00;;;;;;;10.63;95.32;154088.56;5063060;28;20457;-92
2024/03/23 04:54:46;;;;;;;4.20;3.67;;;;;;;10.64;95.61;154091.16;5070542;28;20445;-93
2024/03/23 04:57:13;;;;;;;4.13;3.73;;;;;;;10.71;95.80;154110.56;5044610;28;20516;-92
2024/03/23 04:59:47;;;;;;;4.80;3.90;;;;;;;10.76;95.73;154122.22;5061550;28;20474;-92
2024/03/23 05:02:12;;;;;;;4.40;3.67;;;;;;;10.83;96.22;154141.63;5053978;28;20447;-90
2024/03/23 05:04:40;;;;;;;6.50;4.40;;;;;;;10.83;97.82;154140.31;5066869;28;20456;-90
2024/03/23 05:07:06;;;;;;;6.00;5.03;;;;;;;10.86;99.13;154149.41;5035670;28;20465;-88
2024/03/23 05:09:33;;;;;;;7.20;5.80;;;;;;;10.84;100.00;154142.94;5069600;28;20449;-88
2024/03/23 05:11:58;;;;;;;8.80;7.73;;;;;;;10.85;100.00;154146.84;5068723;28;20214;-90
2024/03/23 05:14:28;;;;;;;9.90;8.53;;;;;;;10.82;100.00;154137.78;5057027;28;20930;-89
2024/03/23 05:16:53;;;;;;;9.40;8.40;;;;;;;10.80;100.00;154133.84;5055505;28;20484;-90
2024/03/23 05:19:20;;;;;;;10.37;8.57;;;;;;;10.75;100.00;154119.66;5064197;28;20845;-90
2024/03/23 05:21:45;;;;;;;12.40;10.20;;;;;;;10.72;100.00;154113.13;5054958;28;20205;-89
2024/03/23 05:24:12;;;;;;;9.93;8.17;;;;;;;10.72;100.00;154113.13;5064294;28;20458;-90
2024/03/23 05:26:38;;;;;;;12.07;10.23;;;;;;;10.72;100.00;154113.13;5045922;28;20206;-89
2024/03/23 05:29:06;;;;;;;12.00;10.30;;;;;;;10.69;100.00;154105.41;5053344;28;20448;-90
2024/03/23 05:31:33;;;;;;;12.20;10.90;;;;;;;10.66;100.00;154097.63;5051028;28;20673;-90
2024/03/23 05:34:00;;;;;;;12.40;10.17;;;;;;;10.63;100.00;154089.84;5060178;28;20482;-89
2024/03/23 05:36:25;;;;;;;12.03;9.83;;;;;;;10.61;100.00;154084.69;5045129;28;20467;-89
2024/03/23 05:38:52;;;;;;;11.50;10.00;;;;;;;10.62;100.00;154087.25;5053453;28;20519;-89
2024/03/23 05:41:17;;;;;;;14.20;10.17;;;;;;;10.57;100.00;154074.31;5056465;28;20268;-89
2024/03/23 05:43:44;;;;;;;12.47;10.90;;;;;;;10.55;100.00;154069.13;5065275;28;20430;-89
2024/03/23 05:46:09;;;;;;;14.00;10.97;;;;;;;10.59;100.00;154078.22;5047178;28;20292;-89
2024/03/23 05:48:37;;;;;;;12.90;10.20;;;;;;;10.58;100.00;154075.59;5041469;28;20837;-89
2024/03/23 05:51:03;;;;;;;10.93;9.53;;;;;;;10.54;100.00;154066.53;5044942;28;20201;-89
2024/03/23 05:53:30;;;;;;;12.13;9.33;;;;;;;10.50;100.00;154056.19;5050134;28;20423;-89
2024/03/23 05:56:00;;;;;;;12.90;10.30;;;;;;;10.45;100.00;154043.25;5045149;28;20465;-89
2024/03/23 05:58:27;;;;;;;12.50;9.37;;;;;;;10.44;100.00;154040.63;5058830;28;20493;-89
2024/03/23 06:00:57;;;;;;;12.83;8.93;;;;;;;10.45;100.00;154043.25;5068179;28;20563;-89
2024/03/23 06:03:23;;;;;;;12.10;9.80;;;;;;;10.45;100.00;154043.25;5055070;28;20423;-89
2024/03/23 06:05:51;;;;;;;9.27;7.53;;;;;;;10.43;100.00;154038.09;5065859;28;20445;-89
2024/03/23 06:08:17;;;;;;;11.83;8.80;;;;;;;10.40;100.00;154030.31;5061557;28;20535;-89
2024/03/23 06:10:43;;;;;;;10.57;7.50;;;;;;;10.38;100.00;154025.09;5041646;28;20442;-89
2024/03/23 06:13:10;;;;;;;9.83;6.87;;;;;;;10.32;100.00;154009.59;5040926;28;20477;-89
2024/03/23 06:15:37;;;;;;;7.47;5.80;;;;;;;10.24;100.00;153988.88;5051573;28;20282;-89
2024/03/23 06:18:04;;;;;;;8.30;5.93;;;;;;;10.17;100.00;153972.03;5055367;28;20481;-89
2024/03/23 06:20:30;;;;;;;6.27;4.67;;;;;;;10.17;100.00;153970.72;5061298;28;20492;-89
2024/03/23 06:22:58;;;;;;;5.23;4.67;;;;;;;10.17;100.00;153970.72;5048056;28;20473;-88
2024/03/23 06:25:23;;;;;;;4.40;3.20;;;;;;;10.16;100.00;153968.16;5047348;28;20250;-89
2024/03/23 06:27:50;;;;;;;3.70;2.73;;;;;;;10.10;100.00;153952.56;5047229;28;20443;-89
2024/03/23 06:30:15;;;;;;;3.40;2.67;;;;;;;10.07;100.00;153946.09;5063024;28;20581;-89
2024/03/23 06:32:42;;;;;;;3.50;2.40;;;;;;;10.06;100.00;153943.50;5045629;28;20454;-89
2024/03/23 06:35:09;;;;;;;3.43;2.00;;;;;;;10.00;100.00;153928.00;5064253;28;20210;-89
2024/03/23 06:37:36;;;;;;;2.20;1.63;;;;;;;9.97;100.00;153918.91;5038124;28;20461;-89
2024/03/23 06:40:04;;;;;;;2.80;2.13;;;;;;;9.95;100.00;153913.75;5058450;28;20489;-89
2024/03/23 06:42:31;;;;;;;1.80;1.40;;;;;;;9.94;100.00;153911.16;5056841;28;20549;-88
2024/03/23 06:44:56;;;;;;;1.30;1.13;;;;;;;9.88;100.00;153895.59;5063942;28;20454;-88
2024/03/23 06:47:23;;;;;;;1.27;0.80;;;;;;;9.82;100.00;153882.69;5060110;28;20457;-88
2024/03/23 06:49:48;;;;;;;1.33;0.80;;;;;;;9.79;100.00;153874.91;5063105;28;20206;-89
2024/03/23 06:52:15;;;;;;;1.50;0.70;;;;;;;9.72;100.00;153855.50;5069808;28;20456;-85
2024/03/23 06:54:41;;;;;;;3.23;0.77;;;;;;;9.67;100.00;153843.88;5041141;28;20197;-89
2024/03/23 06:57:08;;;;;;;1.00;0.63;;;;;;;9.64;100.00;153836.09;5059645;28;20469;-85
2024/03/23 06:59:34;;;;;;;1.20;0.73;;;;;;;9.57;100.00;153818.00;5060977;28;20221;-86
2024/03/23 07:02:00;;;;;;;1.13;0.60;;;;;;;9.48;100.00;153794.69;5060409;28;20453;-88
2024/03/23 07:04:26;;;;;;;1.17;0.60;;;;;;;9.52;100.00;153803.78;5059704;28;20220;-86
2024/03/23 07:06:53;;;;;;;1.10;0.50;;;;;;;9.53;100.00;153806.38;5061130;28;20450;-88
2024/03/23 07:09:19;;;;;;;0.90;0.50;;;;;;;9.54;100.00;153810.25;5061510;28;20608;-86
2024/03/23 07:11:46;;;;;;;0.80;0.40;;;;;;;9.58;100.00;153820.56;5054814;28;20473;-87
2024/03/23 07:14:13;;;;;;;1.27;0.80;;;;;;;9.61;100.00;153828.34;5064589;28;20454;-87
2024/03/23 07:16:39;;;;;;;1.03;0.60;;;;;;;9.61;100.00;153828.34;5062327;28;20868;-86
2024/03/23 07:19:05;;;;;;;1.30;0.90;;;;;;;9.60;100.00;153824.47;5065823;28;20454;-89
2024/03/23 07:21:31;;;;;;;1.10;0.60;;;;;;;9.61;100.00;153827.06;5061827;28;20434;-88
2024/03/23 07:23:57;;;;;;;1.00;0.57;;;;;;;9.70;100.00;153850.34;5058253;28;20560;-89
2024/03/23 07:26:23;;;;;;;0.90;0.40;;;;;;;9.81;100.00;153878.81;5061546;28;20478;-90
2024/03/23 07:28:49;;;;;;;1.10;0.50;;;;;;;9.92;100.00;153907.28;5063882;28;20213;-89
2024/03/23 07:31:17;;;;;;;0.70;0.40;;;;;;;9.99;99.72;153925.38;5065931;28;20462;-87
2024/03/23 07:33:44;;;;;;;0.90;0.40;;;;;;;10.01;98.58;153930.56;5063443;28;20202;-89
2024/03/23 07:36:10;;;;;;;1.57;0.50;;;;;;;10.15;98.91;153965.56;5055327;28;20505;-91
2024/03/23 07:38:36;;;;;;;0.90;0.53;;;;;;;10.19;99.13;153977.19;5040096;28;20458;-90
2024/03/23 07:41:06;;;;;;;0.90;0.33;;;;;;;10.32;98.99;154010.91;5061363;28;20467;-91
2024/03/23 07:43:31;;;;;;;0.90;0.60;;;;;;;10.37;98.78;154022.53;5043044;28;20205;-90
2024/03/23 07:45:58;;;;;;;1.00;0.50;;;;;;;10.35;96.35;154017.38;5040411;28;20535;-91
2024/03/23 07:48:25;;;;;;;0.90;0.40;;;;;;;10.32;96.68;154009.59;5062807;28;20346;-89
2024/03/23 07:50:59;;;;;;;1.20;0.73;;;;;;;10.23;97.37;153986.28;5061830;28;20952;-89
2024/03/23 07:53:25;;;;;;;0.90;0.40;;;;;;;10.20;97.37;153978.50;5048074;28;20457;-89
2024/03/23 07:55:56;;;;;;;0.80;0.40;;;;;;;10.18;97.74;153973.34;5040533;28;20446;-90
2024/03/23 07:58:22;;;;;;;0.80;0.40;;;;;;;10.13;97.49;153961.69;5058468;28;20202;-90
2024/03/23 08:00:48;;;;;;;0.90;0.40;;;;;;;10.10;98.11;153952.56;5042165;28;20478;-90
2024/03/23 08:03:14;;;;;;;0.87;0.50;;;;;;;10.04;98.79;153937.03;5059963;28;20213;-88
2024/03/23 08:05:42;;;;;;;1.00;0.40;;;;;;;9.93;98.05;153908.59;5063565;28;20901;-87
2024/03/23 08:08:07;;;;;;;1.20;0.60;;;;;;;9.86;98.20;153890.44;5037220;28;20212;-87
2024/03/23 08:10:34;;;;;;;1.03;0.50;;;;;;;9.74;98.57;153861.97;5061360;28;20824;-87
2024/03/23 08:13:00;;;;;;;0.90;0.40;;;;;;;9.69;99.36;153849.03;5061582;28;20235;-88
2024/03/23 08:15:26;;;;;;;1.10;0.60;;;;;;;9.62;99.69;153830.94;5063754;28;20458;-87
2024/03/23 08:17:52;;;;;;;0.70;0.37;;;;;;;9.60;100.00;153824.47;5056065;28;20251;-86
2024/03/23 08:20:18;;;;;;;1.13;0.73;;;;;;;9.56;100.00;153815.41;5040684;28;20473;-89
2024/03/23 08:22:45;;;;;;;1.20;0.60;;;;;;;9.61;100.00;153827.06;5042772;28;20224;-90
2024/03/23 08:25:12;;;;;;;1.10;0.57;;;;;;;9.65;100.00;153838.72;5040720;28;20509;-90
2024/03/23 08:27:37;;;;;;;1.00;0.50;;;;;;;9.72;100.00;153855.50;5048190;28;20458;-88
2024/03/23 08:30:04;;;;;;;1.10;0.60;;;;;;;9.75;100.00;153864.56;5041653;28;20480;-88
2024/03/23 08:32:30;;;;;;;1.37;1.00;;;;;;;9.75;100.00;153863.28;5064878;28;20258;-89
2024/03/23 08:34:57;;;;;;;1.27;0.77;;;;;;;9.73;100.00;153858.09;5049445;28;20943;-88
2024/03/23 08:37:24;;;;;;;0.97;0.70;;;;;;;9.69;100.00;153849.03;5058264;28;20258;-88
2024/03/23 08:39:53;;;;;;;1.10;0.70;;;;;;;9.68;100.00;153846.47;5058427;28;20474;-85
2024/03/23 08:42:19;;;;;;;2.73;0.90;;;;;;;9.69;100.00;153847.72;5064761;28;20969;-88
2024/03/23 08:44:49;;;;;;;1.33;0.80;;;;;;;9.84;100.00;153885.28;5043455;28;20457;-88
2024/03/23 08:47:15;;;;;;;1.83;1.13;;;;;;;10.07;100.00;153944.81;5060999;28;20209;-89
2024/03/23 08:49:41;;;;;;;1.60;1.40;;;;;;;10.25;100.00;153991.44;5046914;28;20453;-88
2024/03/23 08:52:07;;;;;;;1.70;1.20;;;;;;;10.38;100.00;154025.09;5040424;28;20715;-89
2024/03/23 08:54:34;;;;;;;2.83;1.20;;;;;;;10.48;97.65;154051.03;5059027;28;20465;-90
2024/03/23 08:57:01;;;;;;;1.60;1.20;;;;;;;10.50;96.86;154056.19;5030069;28;20861;-90
2024/03/23 08:59:27;;;;;;;1.50;1.20;;;;;;;10.50;95.84;154056.19;5065722;28;20515;-89
2024/03/23 09:01:53;;;;;;;1.57;1.23;;;;;;;10.52;94.45;154060.06;5061882;28;20449;-90
2024/03/23 09:04:21;;;;;;;2.10;1.17;;;;;;;10.53;93.37;154063.97;5060269;28;20516;-90
2024/03/23 09:06:47;;;;;;;1.50;1.10;;;;;;;10.48;91.68;154051.03;5045129;28;20461;-90
2024/03/23 09:09:13;;;;;;;2.13;1.40;;;;;;;10.39;92.00;154029.00;5041754;28;20489;-90
2024/03/23 09:11:38;;;;;;;2.07;1.20;;;;;;;10.28;92.89;154000.50;5062732;28;20224;-89
2024/03/23 09:14:06;;;;;;;2.00;1.43;;;;;;;10.19;92.18;153975.94;5069896;28;20454;-89
2024/03/23 09:16:32;;;;;;;3.80;1.80;;;;;;;10.15;91.81;153965.56;5065360;28;20289;-89
2024/03/23 09:18:58;;;;;;;3.63;1.90;;;;;;;10.08;90.66;153947.41;5043990;28;20530;-89
2024/03/23 09:21:24;;;;;;;3.90;1.80;;;;;;;10.01;91.36;153930.56;5042094;28;20221;-88
2024/03/23 09:23:51;;;;;;;1.70;1.47;;;;;;;10.02;92.55;153931.88;5064279;28;20452;-89
2024/03/23 09:26:16;;;;;;;1.93;1.67;;;;;;;9.99;90.96;153924.09;5065453;28;20245;-89
2024/03/23 09:28:43;;;;;;;3.10;2.17;;;;;;;10.03;90.22;153934.47;5063177;28;20585;-89
2024/03/23 09:31:14;;;;;;;3.60;2.07;;;;;;;10.07;89.63;153944.81;5064948;28;20239;-90
2024/03/23 09:33:40;;;;;;;4.60;2.70;;;;;;;10.06;89.28;153943.50;5049709;28;20793;-89
2024/03/23 09:36:07;;;;;;;3.80;2.00;;;;;;;10.09;89.38;153951.25;5063588;28;20473;-90
2024/03/23 09:38:34;;;;;;;4.37;2.40;;;;;;;10.12;89.15;153959.09;5041455;28;20480;-90
2024/03/23 09:40:59;;;;;;;6.47;2.60;;;;;;;10.16;88.28;153968.16;5048640;28;20946;-91
2024/03/23 09:43:29;;;;;;;3.80;2.90;;;;;;;10.24;88.70;153988.88;5062988;28;20584;-91
2024/03/23 09:45:54;;;;;;;4.53;2.90;;;;;;;10.27;86.25;153996.66;5063616;28;20266;-91
2024/03/23 09:48:22;;;;;;;4.20;3.10;;;;;;;10.30;84.11;154004.38;5067387;28;20528;-91
2024/03/23 09:50:48;;;;;;;2.97;2.67;;;;;;;10.37;84.48;154022.53;5050162;28;20205;-91
2024/03/23 09:53:15;;;;;;;5.23;2.70;;;;;;;10.43;82.92;154036.78;5063327;28;20455;-91
2024/03/23 09:55:42;;;;;;;5.13;2.80;;;;;;;10.45;82.39;154043.25;5064061;28;20492;-92
2024/03/23 09:58:09;;;;;;;4.43;2.83;;;;;;;10.36;76.62;154021.22;5059368;28;20438;-91
2024/03/23 10:00:35;;;;;;;4.37;3.03;;;;;;;10.42;77.24;154035.47;5063478;28;20474;-91
2024/03/23 10:03:02;;;;;;;6.20;3.10;;;;;;;10.43;77.17;154038.09;5062920;28;20936;-91
2024/03/23 10:05:31;;;;;;;4.60;2.60;;;;;;;10.36;77.83;154019.94;5064811;28;20561;-92
2024/03/23 10:07:57;;;;;;;4.70;3.20;;;;;;;10.30;77.91;154004.38;5041462;28;20533;-92
2024/03/23 10:10:25;;;;;;;5.23;3.07;;;;;;;10.18;74.15;153974.63;5044910;28;20458;-91
2024/03/23 10:12:51;;;;;;;5.57;2.87;;;;;;;10.21;75.19;153981.09;5066072;28;20815;-91
2024/03/23 10:15:19;;;;;;;3.53;3.07;;;;;;;10.20;75.61;153978.50;5067303;28;20507;-90
2024/03/23 10:17:45;;;;;;;6.20;3.47;;;;;;;10.20;77.20;153978.50;5081314;28;20982;-91
2024/03/23 10:20:11;;;;;;;5.60;3.43;;;;;;;10.12;77.03;153957.72;5045786;28;20466;-91
2024/03/23 10:22:39;;;;;;;4.90;2.80;;;;;;;10.13;76.28;153960.41;5061844;28;20456;-92
2024/03/23 10:25:09;;;;;;;4.63;2.90;;;;;;;10.12;77.07;153957.72;5053165;28;20244;-91
2024/03/23 10:27:36;;;;;;;4.20;3.10;;;;;;;10.10;79.41;153952.56;5043983;28;21055;-91
2024/03/23 10:30:08;;;;;;;5.50;3.03;;;;;;;10.10;80.10;153952.56;5067779;28;20460;-91
2024/03/23 10:32:35;;;;;;;8.77;3.10;;;;;;;10.11;79.85;153956.44;5066591;28;20978;-92
2024/03/23 10:35:14;;;;;;;5.33;4.00;;;;;;;10.13;80.14;153961.69;5065101;28;20454;-92
2024/03/23 10:37:42;;;;;;;5.43;3.50;;;;;;;10.21;81.34;153982.41;5060399;28;20438;-92
2024/03/23 10:40:10;;;;;;;4.47;2.60;;;;;;;10.23;78.38;153986.28;5049207;28;20474;-92
2024/03/23 10:42:37;;;;;;;6.07;3.13;;;;;;;10.20;77.42;153979.81;5071474;28;20470;-90
2024/03/23 10:45:04;;;;;;;5.03;3.00;;;;;;;10.23;77.63;153987.56;5046132;28;20479;-90
2024/03/23 10:47:30;;;;;;;4.93;2.90;;;;;;;10.23;76.36;153986.28;5064792;28;20895;-90
2024/03/23 10:49:56;;;;;;;6.83;3.70;;;;;;;10.24;75.72;153988.88;5040932;28;20458;-90
2024/03/23 10:52:23;;;;;;;5.73;3.93;;;;;;;10.17;75.02;153972.03;5044033;28;20454;-91
2024/03/23 10:54:51;;;;;;;3.60;2.60;;;;;;;10.10;73.70;153952.56;5038916;28;20217;-91
2024/03/23 10:57:19;;;;;;;5.33;3.23;;;;;;;10.07;75.50;153944.81;5056530;28;20531;-91
2024/03/23 10:59:45;;;;;;;6.47;3.30;;;;;;;10.01;76.98;153930.56;5062685;28;20449;-91
2024/03/23 11:02:20;;;;;;;3.70;2.90;;;;;;;9.80;80.30;153877.50;5057631;28;20999;-92
2024/03/23 11:04:48;;;;;;;4.63;2.67;;;;;;;9.55;82.28;153812.84;5054435;28;20549;-91
2024/03/23 11:07:31;;;;;;;2.80;1.37;;;;;;;9.23;85.62;153730.03;5060178;28;20451;-93
2024/03/23 11:09:58;;;;;;;2.83;1.80;;;;;;;8.96;88.29;153660.19;5047534;28;20549;-91
2024/03/23 11:12:33;;;;;;;2.77;2.27;;;;;;;8.61;89.08;153569.69;5042308;28;20458;-91
2024/03/23 11:15:01;;;;;;;3.20;2.07;;;;;;;8.43;90.70;153525.75;5042641;28;20532;-89
2024/03/23 11:17:28;;;;;;;3.10;2.23;;;;;;;8.37;91.96;153510.22;5060330;28;21206;-90
2024/03/23 11:19:56;;;;;;;3.30;1.97;;;;;;;8.33;93.84;153499.91;5043315;28;20461;-90
2024/03/23 11:22:44;;;;;;;3.53;2.20;;;;;;;8.36;94.45;153506.38;5045637;28;20450;-91